createdAt,value
2023-02-26T00:00:33.157Z,98482.09
2023-02-26T00:03:04.957Z,98486.72
2023-02-26T00:05:36.664Z,98487.09
2023-02-26T00:08:11.493Z,98480.00
2023-02-26T00:10:44.606Z,98483.97
2023-02-26T00:13:16.910Z,98484.13
2023-02-26T00:15:58.849Z,98487.41
2023-02-26T00:18:30.932Z,98497.63
2023-02-26T00:21:02.887Z,98497.97
2023-02-26T00:23:34.890Z,98497.53
2023-02-26T00:26:07.590Z,98501.03
2023-02-26T00:28:40.236Z,98506.03
2023-02-26T00:31:15.288Z,98523.38
2023-02-26T00:33:48.190Z,98510.28
2023-02-26T00:36:45.866Z,98513.72
2023-02-26T00:39:44.556Z,98527.16
2023-02-26T00:42:19.401Z,98522.50
2023-02-26T00:44:54.084Z,98527.03
2023-02-26T00:48:08.324Z,98530.44
2023-02-26T00:50:56.158Z,98527.53
2023-02-26T00:54:02.191Z,98534.22
2023-02-26T00:56:34.014Z,98527.16
2023-02-26T00:59:06.044Z,98534.00
2023-02-26T01:01:43.430Z,98538.91
2023-02-26T01:04:17.597Z,98537.53
2023-02-26T01:06:57.806Z,98535.06
2023-02-26T01:09:39.486Z,98545.50
2023-02-26T01:12:17.476Z,98548.44
2023-02-26T01:14:52.066Z,98547.25
2023-02-26T01:17:27.888Z,98548.31
2023-02-26T01:20:19.528Z,98545.00
2023-02-26T01:22:55.710Z,98549.03
2023-02-26T01:25:36.847Z,98550.03
2023-02-26T01:28:09.772Z,98547.75
2023-02-26T01:30:42.258Z,98561.25
2023-02-26T01:33:34.818Z,98564.34
2023-02-26T01:36:17.240Z,98563.75
2023-02-26T01:39:03.518Z,98559.88
2023-02-26T01:41:58.489Z,98569.81
2023-02-26T01:44:41.170Z,98564.63
2023-02-26T01:47:26.239Z,98563.69
2023-02-26T01:50:05.789Z,98568.03
2023-02-26T01:52:49.190Z,98568.50
2023-02-26T01:55:28.255Z,98575.91
2023-02-26T01:58:06.271Z,98576.50
2023-02-26T02:00:38.332Z,98583.56
2023-02-26T02:03:13.246Z,98587.59
2023-02-26T02:06:12.096Z,98594.22
2023-02-26T02:08:44.344Z,98591.03
2023-02-26T02:11:18.330Z,98591.88
2023-02-26T02:14:01.787Z,98595.66
2023-02-26T02:16:55.064Z,98604.03
2023-02-26T02:19:35.528Z,98601.69
2023-02-26T02:22:25.300Z,98610.03
2023-02-26T02:25:21.371Z,98603.09
2023-02-26T02:28:34.616Z,98614.78
2023-02-26T02:31:34.241Z,98612.66
2023-02-26T02:34:15.817Z,98612.41
2023-02-26T02:37:05.218Z,98617.59
2023-02-26T02:40:02.677Z,98618.28
2023-02-26T02:43:04.709Z,98610.25
2023-02-26T02:45:45.162Z,98621.09
2023-02-26T02:48:26.562Z,98624.28
2023-02-26T02:51:00.338Z,98631.94
2023-02-26T02:53:43.299Z,98627.34
2023-02-26T02:56:38.979Z,98634.44
2023-02-26T02:59:44.526Z,98638.34
2023-02-26T03:02:31.509Z,98645.06
2023-02-26T03:05:03.861Z,98650.13
2023-02-26T03:07:50.019Z,98652.50
2023-02-26T03:10:22.198Z,98660.97
2023-02-26T03:12:58.567Z,98653.91
2023-02-26T03:15:30.476Z,98663.69
2023-02-26T03:18:13.112Z,98675.03
2023-02-26T03:21:01.342Z,98680.00
2023-02-26T03:23:46.887Z,98678.72
2023-02-26T03:26:29.398Z,98685.47
2023-02-26T03:29:05.504Z,98675.41
2023-02-26T03:31:54.368Z,98684.25
2023-02-26T03:34:47.835Z,98693.81
2023-02-26T03:37:38.923Z,98701.56
2023-02-26T03:40:19.973Z,98697.22
2023-02-26T03:43:00.432Z,98703.34
2023-02-26T03:45:35.601Z,98715.78
2023-02-26T03:48:11.679Z,98719.19
2023-02-26T03:50:49.543Z,98711.28
2023-02-26T03:53:42.736Z,98722.41
2023-02-26T03:56:40.587Z,98723.00
2023-02-26T03:59:34.078Z,98717.56
2023-02-26T04:02:53.793Z,98724.78
2023-02-26T04:05:33.212Z,98733.97
2023-02-26T04:08:15.093Z,98738.22
2023-02-26T04:10:55.466Z,98736.78
2023-02-26T04:13:28.475Z,98737.50
2023-02-26T04:16:00.289Z,98740.38
2023-02-26T04:18:32.905Z,98746.25
2023-02-26T04:21:04.924Z,98741.19
2023-02-26T04:23:36.746Z,98744.84
2023-02-26T04:26:08.831Z,98750.75
2023-02-26T04:28:44.261Z,98744.00
2023-02-26T04:31:19.668Z,98754.31
2023-02-26T04:33:51.768Z,98755.97
2023-02-26T04:36:23.886Z,98760.41
2023-02-26T04:38:56.192Z,98763.34
2023-02-26T04:41:28.040Z,98760.50
2023-02-26T04:44:00.507Z,98758.72
2023-02-26T04:46:34.978Z,98761.91
2023-02-26T04:49:06.859Z,98767.69
2023-02-26T04:51:41.558Z,98773.25
2023-02-26T04:54:13.546Z,98770.66
2023-02-26T04:56:45.599Z,98778.56
2023-02-26T04:59:20.529Z,98782.34
2023-02-26T05:01:55.187Z,98790.16
2023-02-26T05:04:30.146Z,98792.78
2023-02-26T05:07:05.125Z,98788.28
2023-02-26T05:09:36.859Z,98792.19
2023-02-26T05:12:08.951Z,98799.03
2023-02-26T05:14:40.804Z,98797.88
2023-02-26T05:17:19.276Z,98788.44
2023-02-26T05:19:52.189Z,98791.84
2023-02-26T05:22:26.151Z,98795.28
2023-02-26T05:24:57.971Z,98800.34
2023-02-26T05:27:31.029Z,98802.00
2023-02-26T05:30:03.771Z,98813.34
2023-02-26T05:32:35.864Z,98817.81
2023-02-26T05:35:08.472Z,98819.13
2023-02-26T05:37:43.242Z,98826.25
2023-02-26T05:40:15.102Z,98823.28
2023-02-26T05:42:49.924Z,98831.31
2023-02-26T05:45:21.449Z,98835.31
2023-02-26T05:47:53.176Z,98840.16
2023-02-26T05:50:24.916Z,98842.41
2023-02-26T05:52:59.923Z,98856.09
2023-02-26T05:55:31.765Z,98859.75
2023-02-26T05:58:03.987Z,98858.72
2023-02-26T06:00:38.834Z,98868.53
2023-02-26T06:03:10.400Z,98874.03
2023-02-26T06:05:46.155Z,98874.28
2023-02-26T06:08:17.862Z,98884.59
2023-02-26T06:10:54.589Z,98887.19
2023-02-26T06:13:26.367Z,98894.84
2023-02-26T06:15:58.145Z,98896.63
2023-02-26T06:18:30.038Z,98900.53
2023-02-26T06:21:02.245Z,98912.56
2023-02-26T06:23:36.983Z,98919.31
2023-02-26T06:26:08.813Z,98916.13
2023-02-26T06:28:40.674Z,98928.97
2023-02-26T06:31:15.480Z,98933.84
2023-02-26T06:33:47.404Z,98942.81
2023-02-26T06:36:19.444Z,98940.94
2023-02-26T06:38:51.234Z,98947.66
2023-02-26T06:41:23.175Z,98952.75
2023-02-26T06:43:55.364Z,98950.50
2023-02-26T06:46:27.762Z,98960.44
2023-02-26T06:49:03.086Z,98953.00
2023-02-26T06:51:35.246Z,98962.31
2023-02-26T06:54:07.040Z,98968.91
2023-02-26T06:56:41.736Z,98973.78
2023-02-26T06:59:15.329Z,98977.78
2023-02-26T07:01:47.174Z,98984.03
2023-02-26T07:04:20.687Z,98990.34
2023-02-26T07:06:52.534Z,98991.75
2023-02-26T07:09:24.303Z,98994.50
2023-02-26T07:11:58.982Z,99006.06
2023-02-26T07:14:30.771Z,99003.81
2023-02-26T07:17:02.821Z,99012.09
2023-02-26T07:19:34.628Z,99009.94
2023-02-26T07:22:06.347Z,99018.84
2023-02-26T07:24:39.232Z,99022.84
2023-02-26T07:27:12.425Z,99030.44
2023-02-26T07:29:44.132Z,99029.25
2023-02-26T07:32:16.542Z,99032.66
2023-02-26T07:34:48.377Z,99050.88
2023-02-26T07:37:20.108Z,99040.47
2023-02-26T07:39:52.968Z,99046.47
2023-02-26T07:42:27.038Z,99048.16
2023-02-26T07:44:59.790Z,99057.22
2023-02-26T07:47:31.882Z,99058.00
2023-02-26T07:50:04.314Z,99063.66
2023-02-26T07:52:36.083Z,99067.66
2023-02-26T07:55:09.428Z,99071.31
2023-02-26T07:57:44.565Z,99070.47
2023-02-26T08:00:17.091Z,99073.75
2023-02-26T08:02:49.139Z,99079.69
2023-02-26T08:05:20.916Z,99085.25
2023-02-26T08:07:54.680Z,99085.81
2023-02-26T08:10:30.340Z,99083.50
2023-02-26T08:13:04.913Z,99086.56
2023-02-26T08:15:36.663Z,99090.78
2023-02-26T08:18:08.695Z,99088.38
2023-02-26T08:20:40.437Z,99089.66
2023-02-26T08:23:12.865Z,99099.84
2023-02-26T08:25:45.715Z,99114.41
2023-02-26T08:28:17.497Z,99107.09
2023-02-26T08:30:53.555Z,99116.44
2023-02-26T08:33:25.791Z,99116.13
2023-02-26T08:35:59.098Z,99127.41
2023-02-26T08:38:32.012Z,99122.69
2023-02-26T08:41:04.051Z,99127.13
2023-02-26T08:43:36.775Z,99127.75
2023-02-26T08:46:09.219Z,99130.50
2023-02-26T08:48:44.135Z,99139.31
2023-02-26T08:51:15.726Z,99148.28
2023-02-26T08:53:50.292Z,99151.56
2023-02-26T08:56:22.068Z,99148.72
2023-02-26T08:58:53.925Z,99152.22
2023-02-26T09:01:25.993Z,99162.09
2023-02-26T09:03:57.954Z,99159.84
2023-02-26T09:06:30.318Z,99166.81
2023-02-26T09:09:03.788Z,99168.38
2023-02-26T09:11:36.880Z,99164.81
2023-02-26T09:14:11.634Z,99175.97
2023-02-26T09:16:43.523Z,99171.44
2023-02-26T09:19:15.329Z,99179.63
2023-02-26T09:21:47.622Z,99177.38
2023-02-26T09:24:19.396Z,99190.53
2023-02-26T09:26:51.143Z,99188.91
2023-02-26T09:29:22.870Z,99196.13
2023-02-26T09:31:54.728Z,99196.94
2023-02-26T09:34:26.585Z,99200.63
2023-02-26T09:37:01.246Z,99195.22
2023-02-26T09:39:34.076Z,99202.06
2023-02-26T09:42:43.885Z,99201.50
2023-02-26T09:45:33.343Z,99194.63
2023-02-26T09:48:06.967Z,99200.44
2023-02-26T09:50:58.107Z,99207.06
2023-02-26T09:53:35.455Z,99203.47
2023-02-26T09:56:36.914Z,99211.06
2023-02-26T09:59:12.844Z,99205.88
2023-02-26T10:02:00.443Z,99225.25
2023-02-26T10:05:01.010Z,99223.91
2023-02-26T10:07:47.736Z,99225.34
2023-02-26T10:10:37.625Z,99233.34
2023-02-26T10:13:56.214Z,99231.28
2023-02-26T10:16:34.007Z,99230.72
2023-02-26T10:19:13.809Z,99242.19
2023-02-26T10:22:00.248Z,99238.09
2023-02-26T10:24:46.667Z,99237.38
2023-02-26T10:27:24.586Z,99248.31
2023-02-26T10:30:07.168Z,99250.03
2023-02-26T10:33:02.348Z,99258.31
2023-02-26T10:35:42.459Z,99266.50
2023-02-26T10:38:20.918Z,99265.03
2023-02-26T10:41:04.923Z,99278.03
2023-02-26T10:44:05.306Z,99280.31
2023-02-26T10:46:44.476Z,99273.31
2023-02-26T10:49:54.108Z,99276.28
2023-02-26T10:52:32.354Z,99279.06
2023-02-26T10:55:39.517Z,99272.69
2023-02-26T10:58:35.999Z,99268.25
2023-02-26T11:01:16.950Z,99280.03
2023-02-26T11:03:54.638Z,99284.28
2023-02-26T11:06:55.149Z,99286.97
2023-02-26T11:09:28.472Z,99287.97
2023-02-26T11:12:13.754Z,99292.38
2023-02-26T11:14:49.268Z,99288.94
2023-02-26T11:17:27.853Z,99306.06
2023-02-26T11:20:05.144Z,99298.91
2023-02-26T11:22:37.734Z,99285.69
2023-02-26T11:25:14.459Z,99280.09
2023-02-26T11:27:48.666Z,99286.66
2023-02-26T11:30:22.158Z,99287.38
2023-02-26T11:33:04.266Z,99290.31
2023-02-26T11:35:37.063Z,99289.38
2023-02-26T11:38:17.135Z,99300.03
2023-02-26T11:40:54.569Z,99300.88
2023-02-26T11:43:39.370Z,99305.94
2023-02-26T11:46:15.022Z,99304.16
2023-02-26T11:48:49.214Z,99305.50
2023-02-26T11:51:27.641Z,99313.78
2023-02-26T11:54:02.096Z,99311.59
2023-02-26T11:56:43.367Z,99310.94
2023-02-26T11:59:25.728Z,99319.47
2023-02-26T12:02:02.783Z,99316.63
2023-02-26T12:04:36.873Z,99323.53
2023-02-26T12:07:14.183Z,99320.84
2023-02-26T12:09:47.964Z,99329.75
2023-02-26T12:12:26.770Z,99328.00
2023-02-26T12:15:08.298Z,99325.50
2023-02-26T12:17:57.793Z,99329.66
2023-02-26T12:20:32.424Z,99327.53
2023-02-26T12:23:48.443Z,99333.94
2023-02-26T12:26:28.816Z,99329.91
2023-02-26T12:29:23.946Z,99335.47
2023-02-26T12:32:14.384Z,99340.94
2023-02-26T12:35:21.595Z,99334.66
2023-02-26T12:38:34.898Z,99337.25
2023-02-26T12:41:45.851Z,99338.09
2023-02-26T12:44:27.815Z,99334.16
2023-02-26T12:47:37.813Z,99338.53
2023-02-26T12:50:43.806Z,99330.28
2023-02-26T12:53:43.653Z,99338.69
2023-02-26T12:56:30.357Z,99345.47
2023-02-26T12:59:22.238Z,99357.69
2023-02-26T13:02:13.750Z,99358.41
2023-02-26T13:05:11.854Z,99356.75
2023-02-26T13:08:19.633Z,99354.19
2023-02-26T13:11:00.001Z,99354.53
2023-02-26T13:13:47.392Z,99362.00
2023-02-26T13:16:47.266Z,99364.88
2023-02-26T13:19:26.458Z,99363.31
2023-02-26T13:22:24.927Z,99354.91
2023-02-26T13:25:03.476Z,99369.50
2023-02-26T13:27:39.678Z,99367.69
2023-02-26T13:30:41.211Z,99364.41
2023-02-26T13:33:19.546Z,99372.09
2023-02-26T13:35:53.620Z,99367.00
2023-02-26T13:38:50.245Z,99376.03
2023-02-26T13:41:46.584Z,99376.25
2023-02-26T13:44:42.108Z,99373.28
2023-02-26T13:47:27.350Z,99376.47
2023-02-26T13:50:14.005Z,99365.78
2023-02-26T13:53:29.095Z,99364.44
2023-02-26T13:56:17.183Z,99372.88
2023-02-26T13:59:12.144Z,99367.66
2023-02-26T14:01:47.785Z,99377.50
2023-02-26T14:04:19.467Z,99374.81
2023-02-26T14:07:14.185Z,99377.78
2023-02-26T14:10:05.515Z,99373.72
2023-02-26T14:12:38.393Z,99375.88
2023-02-26T14:15:13.530Z,99385.75
2023-02-26T14:17:52.373Z,99376.59
2023-02-26T14:20:25.605Z,99381.81
2023-02-26T14:23:12.186Z,99377.81
2023-02-26T14:25:52.277Z,99385.28
2023-02-26T14:28:33.044Z,99382.66
2023-02-26T14:31:13.471Z,99390.00
2023-02-26T14:34:03.600Z,99395.34
2023-02-26T14:36:45.629Z,99402.44
2023-02-26T14:39:32.563Z,99396.06
2023-02-26T14:42:11.496Z,99396.06
2023-02-26T14:44:49.414Z,99395.94
2023-02-26T14:47:22.451Z,99396.41
2023-02-26T14:49:59.615Z,99392.97
2023-02-26T14:52:43.938Z,99401.63
2023-02-26T14:55:49.883Z,99405.88
2023-02-26T14:58:36.460Z,99413.59
2023-02-26T15:01:41.619Z,99412.88
2023-02-26T15:04:26.392Z,99414.91
2023-02-26T15:07:24.244Z,99417.28
2023-02-26T15:10:10.910Z,99432.69
2023-02-26T15:13:26.984Z,99431.41
2023-02-26T15:16:20.218Z,99432.34
2023-02-26T15:19:46.589Z,99430.31
2023-02-26T15:22:48.070Z,99436.63
2023-02-26T15:25:31.298Z,99444.91
2023-02-26T15:28:11.617Z,99452.00
2023-02-26T15:30:50.244Z,99456.38
2023-02-26T15:33:24.764Z,99459.19
2023-02-26T15:35:58.418Z,99456.91
2023-02-26T15:38:36.307Z,99462.63
2023-02-26T15:41:08.471Z,99462.88
2023-02-26T15:43:48.255Z,99462.88
2023-02-26T15:46:27.484Z,99458.47
2023-02-26T15:49:07.476Z,99472.00
2023-02-26T15:51:47.790Z,99468.19
2023-02-26T15:54:25.486Z,99468.47
2023-02-26T15:56:57.244Z,99473.91
2023-02-26T15:59:32.725Z,99479.25
2023-02-26T16:02:04.478Z,99484.34
2023-02-26T16:04:39.483Z,99488.59
2023-02-26T16:07:13.652Z,99493.59
2023-02-26T16:09:52.779Z,99498.09
2023-02-26T16:12:36.552Z,99502.25
2023-02-26T16:15:15.823Z,99506.66
2023-02-26T16:17:51.472Z,99515.31
2023-02-26T16:20:27.474Z,99521.34
2023-02-26T16:23:03.927Z,99529.03
2023-02-26T16:26:01.630Z,99530.31
2023-02-26T16:28:45.922Z,99540.28
2023-02-26T16:31:28.029Z,99538.84
2023-02-26T16:34:04.436Z,99550.22
2023-02-26T16:36:42.066Z,99556.16
2023-02-26T16:39:31.082Z,99559.69
2023-02-26T16:42:17.074Z,99571.97
2023-02-26T16:45:13.750Z,99573.19
2023-02-26T16:47:49.484Z,99571.97
2023-02-26T16:50:30.245Z,99580.13
2023-02-26T16:53:08.326Z,99587.69
2023-02-26T16:55:40.388Z,99585.81
2023-02-26T16:58:16.065Z,99596.97
2023-02-26T17:00:52.461Z,99607.41
2023-02-26T17:03:26.867Z,99610.56
2023-02-26T17:06:25.044Z,99612.09
2023-02-26T17:09:01.400Z,99614.44
2023-02-26T17:11:38.558Z,99620.94
2023-02-26T17:14:19.283Z,99620.84
2023-02-26T17:16:52.439Z,99630.66
2023-02-26T17:19:24.193Z,99631.91
2023-02-26T17:21:59.244Z,99632.97
2023-02-26T17:24:40.874Z,99649.00
2023-02-26T17:27:27.231Z,99651.09
2023-02-26T17:30:04.525Z,99649.22
2023-02-26T17:32:36.568Z,99654.41
2023-02-26T17:35:12.310Z,99662.34
2023-02-26T17:37:47.199Z,99673.81
2023-02-26T17:40:28.853Z,99670.28
2023-02-26T17:43:00.735Z,99674.88
2023-02-26T17:45:34.422Z,99681.31
2023-02-26T17:48:07.006Z,99685.91
2023-02-26T17:50:50.096Z,99698.59
2023-02-26T17:53:41.773Z,99696.00
2023-02-26T17:56:37.100Z,99701.44
2023-02-26T17:59:10.024Z,99703.91
2023-02-26T18:01:42.031Z,99700.19
2023-02-26T18:04:14.276Z,99698.19
2023-02-26T18:06:46.258Z,99705.06
2023-02-26T18:09:18.016Z,99708.41
2023-02-26T18:11:49.830Z,99707.69
2023-02-26T18:14:24.453Z,99709.66
2023-02-26T18:16:58.968Z,99709.25
2023-02-26T18:19:30.876Z,99720.59
2023-02-26T18:22:05.793Z,99720.78
2023-02-26T18:24:37.331Z,99718.59
2023-02-26T18:27:19.371Z,99716.63
2023-02-26T18:29:53.007Z,99716.75
2023-02-26T18:32:28.813Z,99707.16
2023-02-26T18:35:03.088Z,99705.50
2023-02-26T18:37:34.953Z,99727.66
2023-02-26T18:40:15.713Z,99728.06
2023-02-26T18:42:47.673Z,99729.13
2023-02-26T18:45:21.070Z,99730.97
2023-02-26T18:47:52.881Z,99739.09
2023-02-26T18:50:25.929Z,99732.31
2023-02-26T18:53:05.586Z,99737.50
2023-02-26T18:55:37.413Z,99739.84
2023-02-26T18:58:13.672Z,99742.63
2023-02-26T19:00:46.011Z,99749.41
2023-02-26T19:03:17.948Z,99748.66
2023-02-26T19:06:04.382Z,99741.34
2023-02-26T19:08:48.966Z,99742.72
2023-02-26T19:11:20.662Z,99752.19
2023-02-26T19:13:56.304Z,99746.81
2023-02-26T19:16:33.346Z,99745.88
2023-02-26T19:19:07.694Z,99742.88
2023-02-26T19:21:42.278Z,99753.38
2023-02-26T19:24:16.324Z,99758.88
2023-02-26T19:26:49.096Z,99764.66
2023-02-26T19:29:21.069Z,99766.13
2023-02-26T19:31:52.929Z,99770.03
2023-02-26T19:34:27.458Z,99770.75
2023-02-26T19:37:06.844Z,99776.81
2023-02-26T19:39:38.891Z,99786.28
2023-02-26T19:42:14.815Z,99783.06
2023-02-26T19:44:46.552Z,99788.00
2023-02-26T19:47:18.287Z,99780.41
2023-02-26T19:49:50.009Z,99787.28
2023-02-26T19:52:24.560Z,99783.56
2023-02-26T19:54:57.464Z,99797.41
2023-02-26T19:57:36.978Z,99793.03
2023-02-26T20:00:09.298Z,99792.31
2023-02-26T20:02:47.972Z,99801.59
2023-02-26T20:05:19.986Z,99802.72
2023-02-26T20:08:03.331Z,99801.97
2023-02-26T20:10:41.655Z,99801.13
2023-02-26T20:13:40.870Z,99807.34
2023-02-26T20:16:40.981Z,99811.91
2023-02-26T20:19:16.668Z,99817.41
2023-02-26T20:21:53.788Z,99812.00
2023-02-26T20:24:50.997Z,99817.50
2023-02-26T20:27:27.917Z,99820.94
2023-02-26T20:30:04.155Z,99828.22
2023-02-26T20:32:59.196Z,99824.69
2023-02-26T20:35:31.400Z,99831.19
2023-02-26T20:38:03.693Z,99836.69
2023-02-26T20:40:35.431Z,99831.88
2023-02-26T20:43:08.439Z,99836.22
2023-02-26T20:46:01.244Z,99847.84
2023-02-26T20:48:40.452Z,99853.78
2023-02-26T20:51:12.375Z,99850.25
2023-02-26T20:53:46.704Z,99850.91
2023-02-26T20:56:18.696Z,99859.72
2023-02-26T20:58:50.896Z,99864.75
2023-02-26T21:01:23.264Z,99864.75
2023-02-26T21:03:57.745Z,99870.41
2023-02-26T21:06:29.568Z,99870.41
2023-02-26T21:09:04.188Z,99869.88
2023-02-26T21:11:37.072Z,99868.81
2023-02-26T21:14:09.796Z,99877.38
2023-02-26T21:16:45.180Z,99872.72
2023-02-26T21:19:20.445Z,99879.88
2023-02-26T21:21:52.500Z,99888.31
2023-02-26T21:24:31.098Z,99890.97
2023-02-26T21:27:05.440Z,99889.28
2023-02-26T21:29:37.210Z,99887.41
2023-02-26T21:32:12.141Z,99888.53
2023-02-26T21:34:43.919Z,99893.56
2023-02-26T21:37:15.710Z,99892.88
2023-02-26T21:39:48.628Z,99891.69
2023-02-26T21:42:23.516Z,99897.91
2023-02-26T21:44:55.082Z,99891.59
2023-02-26T21:47:29.436Z,99899.38
2023-02-26T21:50:03.388Z,99885.75
2023-02-26T21:52:35.116Z,99888.63
2023-02-26T21:55:12.037Z,99895.88
2023-02-26T21:57:44.103Z,99895.75
2023-02-26T22:00:17.868Z,99901.25
2023-02-26T22:02:52.433Z,99903.56
2023-02-26T22:05:25.174Z,99901.16
2023-02-26T22:07:56.863Z,99906.28
2023-02-26T22:10:31.218Z,99908.88
2023-02-26T22:13:03.132Z,99913.88
2023-02-26T22:15:37.754Z,99910.25
2023-02-26T22:18:09.567Z,99913.41
2023-02-26T22:20:41.339Z,99914.44
2023-02-26T22:23:13.199Z,99913.59
2023-02-26T22:25:47.756Z,99917.03
2023-02-26T22:28:19.675Z,99925.19
2023-02-26T22:30:51.868Z,99927.78
2023-02-26T22:33:25.742Z,99929.38
2023-02-26T22:35:59.481Z,99931.91
2023-02-26T22:38:31.497Z,99934.84
2023-02-26T22:41:03.247Z,99935.53
2023-02-26T22:43:35.042Z,99942.72
2023-02-26T22:46:06.948Z,99938.28
2023-02-26T22:48:40.057Z,99947.56
2023-02-26T22:51:12.752Z,99949.16
2023-02-26T22:53:44.835Z,99944.81
2023-02-26T22:56:19.829Z,99946.38
2023-02-26T22:58:51.611Z,99946.53
2023-02-26T23:01:26.868Z,99940.34
2023-02-26T23:03:59.511Z,99952.97
2023-02-26T23:06:34.151Z,99944.31
2023-02-26T23:09:06.396Z,99947.75
2023-02-26T23:11:38.392Z,99947.13
2023-02-26T23:14:10.470Z,99949.97
2023-02-26T23:16:42.283Z,99945.91
2023-02-26T23:19:14.122Z,99945.97
2023-02-26T23:21:45.892Z,99948.41
2023-02-26T23:24:17.775Z,99938.75
2023-02-26T23:26:52.209Z,99946.38
2023-02-26T23:29:24.831Z,99956.50
2023-02-26T23:31:59.142Z,99944.97
2023-02-26T23:34:31.195Z,99955.47
2023-02-26T23:37:03.927Z,99946.00
2023-02-26T23:39:35.750Z,99946.72
2023-02-26T23:42:10.908Z,99936.53
2023-02-26T23:44:42.450Z,99944.53
2023-02-26T23:47:14.324Z,99944.97
2023-02-26T23:49:48.876Z,99946.53
2023-02-26T23:52:20.936Z,99944.03
2023-02-26T23:54:54.485Z,99942.44
2023-02-26T23:57:26.137Z,99941.50
